createdAt,value
2019-01-03T00:04:54.237Z,80.36
2019-01-03T00:10:57.591Z,80.69
2019-01-03T00:17:00.977Z,80.09
2019-01-03T00:19:49.325Z,80.86
2019-01-03T00:22:37.703Z,80.19
2019-01-03T00:25:26.059Z,79.56
2019-01-03T00:28:36.033Z,80.19
2019-01-03T00:32:02.374Z,80.30
2019-01-03T00:34:50.819Z,82.12
2019-01-03T00:37:58.516Z,81.44
2019-01-03T00:44:01.818Z,82.06
2019-01-03T00:46:50.169Z,82.17
2019-01-03T00:49:57.882Z,81.87
2019-01-03T00:59:09.985Z,82.56
2019-01-03T01:01:58.360Z,82.82
2019-01-03T01:05:07.647Z,83.60
2019-01-03T01:07:56.006Z,81.83
2019-01-03T01:10:44.364Z,81.08
2019-01-03T01:13:32.714Z,81.81
2019-01-03T01:16:21.077Z,83.95
2019-01-03T01:22:57.073Z,84.15
2019-01-03T01:29:13.731Z,82.98
2019-01-03T01:32:02.086Z,82.73
2019-01-03T01:35:09.773Z,83.15
2019-01-03T01:43:51.844Z,83.88
2019-01-03T01:46:40.251Z,83.64
2019-01-03T01:49:28.590Z,84.07
2019-01-03T01:55:08.311Z,84.34
2019-01-03T01:57:56.669Z,84.63
2019-01-03T02:04:32.690Z,84.76
2019-01-03T02:07:21.043Z,85.11
2019-01-03T02:10:09.405Z,84.47
2019-01-03T02:15:36.468Z,86.13
2019-01-03T02:18:44.170Z,85.62
2019-01-03T02:25:00.839Z,85.49
2019-01-03T02:27:49.203Z,84.83
2019-01-03T02:30:37.562Z,84.35
2019-01-03T02:33:25.898Z,84.71
2019-01-03T02:36:33.611Z,84.63
2019-01-03T02:42:36.631Z,84.78
2019-01-03T02:45:45.918Z,86.00
2019-01-03T02:51:43.291Z,86.41
2019-01-03T02:54:31.641Z,86.12
2019-01-03T02:57:19.997Z,85.43
2019-01-03T03:00:08.341Z,85.51
2019-01-03T03:02:56.734Z,85.72
2019-01-03T03:05:45.131Z,86.13
2019-01-03T03:08:33.423Z,86.72
2019-01-03T03:17:32.231Z,85.64
2019-01-03T03:20:20.588Z,86.38
2019-01-03T03:25:48.153Z,86.31
2019-01-03T03:28:36.519Z,86.23
2019-01-03T03:31:44.250Z,85.85
2019-01-03T03:34:51.930Z,86.38
2019-01-03T03:37:40.318Z,87.06
2019-01-03T03:40:49.577Z,86.77
2019-01-03T03:43:37.929Z,86.72
2019-01-03T03:46:26.285Z,86.80
2019-01-03T03:49:14.657Z,86.63
2019-01-03T03:52:03.018Z,86.69
2019-01-03T03:54:51.362Z,86.63
2019-01-03T03:57:59.055Z,86.73
2019-01-03T04:01:06.746Z,87.01
2019-01-03T04:03:55.115Z,86.51
2019-01-03T04:06:43.472Z,86.98
2019-01-03T04:09:31.837Z,88.17
2019-01-03T04:12:20.177Z,87.39
2019-01-03T04:15:08.569Z,86.44
2019-01-03T04:18:16.263Z,86.76
2019-01-03T04:21:23.971Z,88.13
2019-01-03T04:24:12.316Z,86.84
2019-01-03T04:33:11.221Z,87.05
2019-01-03T04:35:59.605Z,86.98
2019-01-03T04:38:47.967Z,87.77
2019-01-03T04:41:55.693Z,86.53
2019-01-03T04:47:52.051Z,86.22
2019-01-03T04:53:49.607Z,86.64
2019-01-03T04:56:57.322Z,86.91
2019-01-03T05:02:44.500Z,87.68
2019-01-03T05:05:52.189Z,88.29
2019-01-03T05:08:59.890Z,87.64
2019-01-03T05:11:48.227Z,87.78
2019-01-03T05:14:55.945Z,88.81
2019-01-03T05:23:48.730Z,88.70
2019-01-03T05:26:56.423Z,89.64
2019-01-03T05:32:59.230Z,90.89
2019-01-03T05:35:47.603Z,91.67
2019-01-03T05:44:59.704Z,91.87
2019-01-03T05:47:48.094Z,90.21
2019-01-03T05:50:36.415Z,90.18
2019-01-03T05:53:44.094Z,91.47
2019-01-03T06:02:23.280Z,91.08
2019-01-03T06:05:11.643Z,90.00
2019-01-03T06:08:00.021Z,90.72
2019-01-03T06:10:48.368Z,91.42
2019-01-03T06:16:16.303Z,92.51
2019-01-03T06:19:24.004Z,92.43
2019-01-03T06:28:00.645Z,90.38
2019-01-03T06:30:49.012Z,90.46
2019-01-03T06:33:37.367Z,90.38
2019-01-03T06:36:25.753Z,90.04
2019-01-03T06:39:14.120Z,89.81
2019-01-03T06:42:02.467Z,90.83
2019-01-03T06:45:10.170Z,90.16
2019-01-03T06:47:58.504Z,91.26
2019-01-03T06:53:45.183Z,91.28
2019-01-03T06:59:28.669Z,90.84
2019-01-03T07:02:36.382Z,91.30
2019-01-03T07:05:44.082Z,92.32
2019-01-03T07:08:32.426Z,92.12
2019-01-03T07:11:40.125Z,91.96
2019-01-03T07:14:47.853Z,92.99
2019-01-03T07:17:55.554Z,91.17
2019-01-03T07:26:54.262Z,91.00
2019-01-03T07:34:08.021Z,90.69
2019-01-03T07:37:17.507Z,90.27
2019-01-03T07:40:45.959Z,90.37
2019-01-03T07:43:53.745Z,89.62
2019-01-03T07:47:04.530Z,90.24
2019-01-03T07:50:34.644Z,88.86
2019-01-03T07:54:05.183Z,88.27
2019-01-03T07:57:35.772Z,89.18
2019-01-03T08:01:06.026Z,88.82
2019-01-03T08:04:57.536Z,88.55
2019-01-03T08:18:46.107Z,92.92
2019-01-03T08:25:30.450Z,89.02
2019-01-03T08:32:33.978Z,89.25
2019-01-03T08:56:19.923Z,90.29
2019-01-03T09:16:10.796Z,88.76
2019-01-03T09:28:45.758Z,89.95
2019-01-03T09:31:34.119Z,89.16
2019-01-03T09:34:22.577Z,91.40
2019-01-03T09:43:28.301Z,91.92
2019-01-03T09:45:57.529Z,91.52
2019-01-03T09:49:23.005Z,92.14
2019-01-03T09:52:29.672Z,90.87
2019-01-03T09:54:58.935Z,89.66
2019-01-03T09:57:28.168Z,91.11
2019-01-03T09:59:57.439Z,91.68
2019-01-03T10:02:46.040Z,90.08
2019-01-03T10:08:52.956Z,89.97
2019-01-03T10:11:41.552Z,89.77
2019-01-03T10:14:10.815Z,88.39
2019-01-03T10:16:40.122Z,89.02
2019-01-03T10:20:07.318Z,89.56
2019-01-03T10:22:37.237Z,90.66
2019-01-03T10:25:06.514Z,89.93
2019-01-03T10:27:35.759Z,88.81
2019-01-03T10:34:07.086Z,88.81
2019-01-03T10:44:16.780Z,88.97
2019-01-03T10:46:46.041Z,88.23
2019-01-03T10:49:34.648Z,88.53
2019-01-03T10:52:23.238Z,86.46
2019-01-03T10:55:04.413Z,87.45
2019-01-03T10:57:33.665Z,87.08
2019-01-03T11:00:22.292Z,87.37
2019-01-03T11:03:10.887Z,87.26
2019-01-03T11:05:40.132Z,86.55
2019-01-03T11:11:23.766Z,85.89
2019-01-03T11:17:27.664Z,85.90
2019-01-03T11:20:42.287Z,87.10
2019-01-03T11:23:12.264Z,86.93
2019-01-03T11:26:00.866Z,85.42
2019-01-03T11:28:49.474Z,84.97
2019-01-03T11:31:18.787Z,85.33
2019-01-03T11:34:07.352Z,84.21
2019-01-03T11:36:55.980Z,83.09
2019-01-03T11:39:44.594Z,84.85
2019-01-03T11:42:13.844Z,84.28
2019-01-03T11:44:43.072Z,84.76
2019-01-03T11:47:12.382Z,85.55
2019-01-03T11:49:41.635Z,86.62
2019-01-03T11:52:10.900Z,86.87
2019-01-03T11:54:40.190Z,86.74
2019-01-03T12:01:09.300Z,85.54
2019-01-03T12:04:33.533Z,85.20
2019-01-03T12:19:28.324Z,84.29
2019-01-03T12:21:57.571Z,83.34
2019-01-03T12:27:22.507Z,83.77
2019-01-03T12:30:11.104Z,83.50
2019-01-03T12:32:40.366Z,83.70
2019-01-03T12:37:59.405Z,83.19
2019-01-03T12:40:52.784Z,83.08
2019-01-03T12:43:41.362Z,82.92
2019-01-03T12:46:10.616Z,82.37
2019-01-03T12:48:45.346Z,82.37
2019-01-03T12:51:59.232Z,81.61
2019-01-03T12:55:05.547Z,81.55
2019-01-03T12:57:34.797Z,82.09
2019-01-03T13:05:58.444Z,82.18
2019-01-03T13:08:27.712Z,82.66
2019-01-03T13:14:41.892Z,82.61
2019-01-03T13:17:11.149Z,83.01
2019-01-03T13:19:40.404Z,81.57
2019-01-03T13:22:09.645Z,82.63
2019-01-03T13:27:51.450Z,82.74
2019-01-03T13:30:20.714Z,81.65
2019-01-03T13:32:50.036Z,81.53
2019-01-03T13:35:19.322Z,82.80
2019-01-03T13:37:48.659Z,81.95
2019-01-03T13:40:17.942Z,81.51
2019-01-03T13:42:47.195Z,82.10
2019-01-03T13:45:16.468Z,82.39
2019-01-03T13:47:45.863Z,82.44
2019-01-03T13:50:15.194Z,81.55
2019-01-03T13:52:44.443Z,81.62
2019-01-03T13:55:13.713Z,81.35
2019-01-03T13:57:43.007Z,80.80
2019-01-03T14:00:12.281Z,80.28
2019-01-03T14:03:00.899Z,81.37
2019-01-03T14:06:07.296Z,80.96
2019-01-03T14:08:55.868Z,79.68
2019-01-03T14:11:44.460Z,80.25
2019-01-03T14:21:30.741Z,80.64
2019-01-03T14:24:37.131Z,78.72
2019-01-03T14:27:25.731Z,79.34
2019-01-03T14:29:54.968Z,78.98
2019-01-03T14:32:43.582Z,79.65
2019-01-03T14:35:12.811Z,79.09
2019-01-03T14:38:01.412Z,79.75
2019-01-03T14:40:37.773Z,80.28
2019-01-03T14:43:26.356Z,79.70
2019-01-03T14:45:55.592Z,80.81
2019-01-03T14:48:44.201Z,78.79
2019-01-03T14:51:32.818Z,79.55
2019-01-03T14:54:21.444Z,78.86
2019-01-03T14:56:50.681Z,77.87
2019-01-03T14:59:39.286Z,78.14
2019-01-03T15:02:27.875Z,78.16
2019-01-03T15:05:16.514Z,77.73
2019-01-03T15:08:05.106Z,78.57
2019-01-03T15:10:53.707Z,79.77
2019-01-03T15:13:42.303Z,79.69
2019-01-03T15:16:11.548Z,79.30
2019-01-03T15:18:40.812Z,78.59
2019-01-03T15:21:29.408Z,81.82
2019-01-03T15:24:18.009Z,80.38
2019-01-03T15:27:06.613Z,81.44
2019-01-03T15:29:35.855Z,80.97
2019-01-03T15:32:24.443Z,81.22
2019-01-03T15:34:53.681Z,80.57
2019-01-03T15:37:44.302Z,81.51
2019-01-03T15:40:32.878Z,82.55
2019-01-03T15:43:21.495Z,82.50
2019-01-03T15:46:45.811Z,82.59
2019-01-03T15:52:22.704Z,81.28
2019-01-03T15:55:11.291Z,81.25
2019-01-03T15:57:40.652Z,81.51
2019-01-03T16:03:36.737Z,81.14
2019-01-03T16:06:25.304Z,80.85
2019-01-03T16:08:54.549Z,79.64
2019-01-03T16:11:43.128Z,80.75
2019-01-03T16:14:31.744Z,80.69
2019-01-03T16:17:20.340Z,81.75
2019-01-03T16:19:49.579Z,81.50
2019-01-03T16:22:38.202Z,81.53
2019-01-03T16:25:07.440Z,82.96
2019-01-03T16:27:56.037Z,82.21
2019-01-03T16:30:25.295Z,81.30
2019-01-03T16:36:06.573Z,82.17
2019-01-03T16:38:35.813Z,82.67
2019-01-03T16:41:05.102Z,81.00
2019-01-03T16:43:34.387Z,82.77
2019-01-03T16:46:03.683Z,82.94
2019-01-03T16:48:32.906Z,83.74
2019-01-03T16:51:02.185Z,84.97
2019-01-03T16:53:31.442Z,85.22
2019-01-03T16:56:00.720Z,84.04
2019-01-03T16:58:30.023Z,85.21
2019-01-03T17:00:59.374Z,85.60
2019-01-03T17:03:28.638Z,86.92
2019-01-03T17:05:57.894Z,87.03
2019-01-03T17:08:27.170Z,87.28
2019-01-03T17:10:56.420Z,86.21
2019-01-03T17:13:25.717Z,86.67
2019-01-03T17:15:54.975Z,86.95
2019-01-03T17:18:24.269Z,87.28
2019-01-03T17:20:53.540Z,86.72
2019-01-03T17:23:22.822Z,86.66
2019-01-03T17:25:52.093Z,86.31
2019-01-03T17:28:21.374Z,86.02
2019-01-03T17:30:50.625Z,85.27
2019-01-03T17:33:19.896Z,87.22
2019-01-03T17:35:49.191Z,85.99
2019-01-03T17:38:18.532Z,88.14
2019-01-03T17:40:47.779Z,87.07
2019-01-03T17:43:17.028Z,87.63
2019-01-03T17:45:46.372Z,88.68
2019-01-03T17:48:15.763Z,86.67
2019-01-03T17:50:45.023Z,85.88
2019-01-03T17:53:14.297Z,86.28
2019-01-03T17:55:43.552Z,86.09
2019-01-03T17:58:12.823Z,86.18
2019-01-03T18:00:42.236Z,85.03
2019-01-03T18:03:30.813Z,85.48
2019-01-03T18:06:19.418Z,84.68
2019-01-03T18:08:48.686Z,85.38
2019-01-03T18:11:17.956Z,84.98
2019-01-03T18:13:47.213Z,85.63
2019-01-03T18:16:16.484Z,85.53
2019-01-03T18:18:47.837Z,85.88
2019-01-03T18:21:17.127Z,87.14
2019-01-03T18:23:46.369Z,86.82
2019-01-03T18:26:17.559Z,88.16
2019-01-03T18:28:46.804Z,88.59
2019-01-03T18:31:16.076Z,88.72
2019-01-03T18:33:45.389Z,88.00
2019-01-03T18:36:14.719Z,87.30
2019-01-03T18:38:45.112Z,88.27
2019-01-03T18:41:15.408Z,86.98
2019-01-03T18:44:01.270Z,88.52
2019-01-03T18:46:32.113Z,88.34
2019-01-03T18:49:01.347Z,87.28
2019-01-03T18:51:30.578Z,86.96
2019-01-03T18:53:59.830Z,87.09
2019-01-03T18:56:29.961Z,89.02
2019-01-03T18:58:59.198Z,88.82
2019-01-03T19:01:28.425Z,90.86
2019-01-03T19:03:57.681Z,89.15
2019-01-03T19:06:26.942Z,87.22
2019-01-03T19:08:56.202Z,88.60
2019-01-03T19:11:25.429Z,88.42
2019-01-03T19:13:54.685Z,87.84
2019-01-03T19:16:23.927Z,87.91
2019-01-03T19:18:53.203Z,86.90
2019-01-03T19:21:22.441Z,86.01
2019-01-03T19:23:55.345Z,86.15
2019-01-03T19:26:22.646Z,86.35
2019-01-03T19:28:51.953Z,87.48
2019-01-03T19:31:23.120Z,86.83
2019-01-03T19:33:52.344Z,87.02
2019-01-03T19:36:21.584Z,87.45
2019-01-03T19:38:50.833Z,87.88
2019-01-03T19:41:20.082Z,87.78
2019-01-03T19:43:50.300Z,87.07
2019-01-03T19:46:20.571Z,85.83
2019-01-03T19:48:49.827Z,87.27
2019-01-03T19:51:19.076Z,86.85
2019-01-03T19:53:50.280Z,86.71
2019-01-03T19:56:19.552Z,86.96
2019-01-03T19:58:50.795Z,85.42
2019-01-03T20:01:20.035Z,85.48
2019-01-03T20:03:50.302Z,86.22
2019-01-03T20:06:19.548Z,85.14
2019-01-03T20:08:48.792Z,86.78
2019-01-03T20:11:18.043Z,86.05
2019-01-03T20:13:49.238Z,85.72
2019-01-03T20:16:18.500Z,86.10
2019-01-03T20:18:47.765Z,86.22
2019-01-03T20:21:17.002Z,86.25
2019-01-03T20:23:47.253Z,85.85
2019-01-03T20:26:20.603Z,85.68
2019-01-03T20:28:49.872Z,86.98
2019-01-03T20:31:19.186Z,86.75
2019-01-03T20:33:48.464Z,85.92
2019-01-03T20:36:20.639Z,86.94
2019-01-03T20:38:56.123Z,86.66
2019-01-03T20:41:33.542Z,86.04
2019-01-03T20:44:09.559Z,86.21
2019-01-03T20:46:38.802Z,85.37
2019-01-03T20:49:08.050Z,86.34
2019-01-03T20:51:37.311Z,86.93
2019-01-03T20:54:06.600Z,86.72
2019-01-03T20:56:36.864Z,86.99
2019-01-03T20:59:06.123Z,87.05
2019-01-03T21:01:35.431Z,86.52
2019-01-03T21:04:04.698Z,87.60
2019-01-03T21:06:33.935Z,87.62
2019-01-03T21:09:03.246Z,87.06
2019-01-03T21:11:32.504Z,86.56
2019-01-03T21:14:02.787Z,85.93
2019-01-03T21:16:32.046Z,86.53
2019-01-03T21:19:01.281Z,86.60
2019-01-03T21:21:30.535Z,87.45
2019-01-03T21:23:59.779Z,88.30
2019-01-03T21:26:29.043Z,87.57
2019-01-03T21:28:58.293Z,87.48
2019-01-03T21:31:27.534Z,87.30
2019-01-03T21:33:57.767Z,86.71
2019-01-03T21:36:27.007Z,87.69
2019-01-03T21:38:56.249Z,87.35
2019-01-03T21:41:25.486Z,87.58
2019-01-03T21:43:54.761Z,88.58
2019-01-03T21:46:24.965Z,88.79
2019-01-03T21:48:54.265Z,88.17
2019-01-03T21:51:23.449Z,88.09
2019-01-03T21:53:52.721Z,88.50
2019-01-03T21:56:21.939Z,88.33
2019-01-03T21:58:52.114Z,88.12
2019-01-03T22:01:21.362Z,88.13
2019-01-03T22:03:50.595Z,89.02
2019-01-03T22:06:19.816Z,87.97
2019-01-03T22:08:50.024Z,88.87
2019-01-03T22:11:19.261Z,89.25
2019-01-03T22:13:48.475Z,88.04
2019-01-03T22:16:18.715Z,88.08
2019-01-03T22:18:47.949Z,88.44
2019-01-03T22:21:18.148Z,88.48
2019-01-03T22:23:47.366Z,87.94
2019-01-03T22:26:16.600Z,87.44
2019-01-03T22:28:45.838Z,87.10
2019-01-03T22:31:15.090Z,87.72
2019-01-03T22:33:44.564Z,86.78
2019-01-03T22:36:13.822Z,87.28
2019-01-03T22:38:43.075Z,86.83
2019-01-03T22:41:12.324Z,87.46
2019-01-03T22:43:41.646Z,87.30
2019-01-03T22:46:17.622Z,86.76
2019-01-03T22:48:47.813Z,86.50
2019-01-03T22:51:20.245Z,87.14
2019-01-03T22:53:49.015Z,86.86
2019-01-03T22:56:18.271Z,87.23
2019-01-03T22:58:47.546Z,87.63
2019-01-03T23:01:17.822Z,87.68
2019-01-03T23:03:47.082Z,88.78
2019-01-03T23:06:16.340Z,88.82
2019-01-03T23:08:47.189Z,89.29
2019-01-03T23:11:16.426Z,88.15
2019-01-03T23:13:45.748Z,87.46
2019-01-03T23:16:15.015Z,87.28
2019-01-03T23:18:45.270Z,87.74
2019-01-03T23:21:14.539Z,87.50
2019-01-03T23:23:44.779Z,88.18
2019-01-03T23:26:14.068Z,87.73
2019-01-03T23:28:43.313Z,87.85
2019-01-03T23:31:12.558Z,87.93
2019-01-03T23:33:41.783Z,88.07
2019-01-03T23:36:11.025Z,88.13
2019-01-03T23:38:40.289Z,87.62
2019-01-03T23:41:09.533Z,87.60
2019-01-03T23:43:38.794Z,89.01
2019-01-03T23:46:10.025Z,89.25
2019-01-03T23:48:39.332Z,88.61
2019-01-03T23:51:09.559Z,88.12
2019-01-03T23:53:38.863Z,88.82
2019-01-03T23:56:08.110Z,88.56
2019-01-03T23:58:37.350Z,89.62
